Time;durP1;ratioP1;P1;durP2;ratioP2;P2;SDS_P1;SDS_P2;PMS_P1;PMS_P2;Temp;Humidity;BMP_temperature;BMP_pressure;BME280_temperature;BME280_humidity;BME280_pressure;Samples;Min_cycle;Max_cycle;Signal;HPM_P1;HPM_P2
2022/09/30 00:02:09;;;;;;;2.33;2.03;;;24.70;60.40;;;;;;5040601;28;20120;-72
2022/09/30 00:04:35;;;;;;;2.35;2.15;;;24.60;60.30;;;;;;5028936;28;20052;-72
2022/09/30 00:07:01;;;;;;;3.30;2.28;;;24.50;60.40;;;;;;5031008;28;20160;-71
2022/09/30 00:09:27;;;;;;;6.78;2.05;;;24.50;60.50;;;;;;5030837;28;20550;-71
2022/09/30 00:11:53;;;;;;;3.05;2.42;;;24.60;60.50;;;;;;5029692;28;20441;-72
2022/09/30 00:14:21;;;;;;;2.10;1.75;;;24.60;60.40;;;;;;5028741;28;20041;-72
2022/09/30 00:16:48;;;;;;;2.45;1.85;;;24.50;60.50;;;;;;5028759;28;20045;-72
2022/09/30 00:19:14;;;;;;;3.90;2.47;;;24.50;60.60;;;;;;5030650;28;20029;-72
2022/09/30 00:21:40;;;;;;;5.68;2.15;;;24.50;60.60;;;;;;5030733;28;20057;-72
2022/09/30 00:24:06;;;;;;;2.13;1.70;;;24.40;60.80;;;;;;5029607;28;20033;-72
2022/09/30 00:26:34;;;;;;;2.47;1.90;;;24.40;60.80;;;;;;5029693;28;20581;-72
2022/09/30 00:29:01;;;;;;;4.55;1.50;;;24.40;60.80;;;;;;5023527;28;20432;-72
2022/09/30 00:31:30;;;;;;;2.08;1.80;;;24.60;60.90;;;;;;5029310;28;20033;-72
2022/09/30 00:34:06;;;;;;;4.60;1.63;;;24.50;61.00;;;;;;5033882;28;20045;-72
2022/09/30 00:36:48;;;;;;;3.08;1.90;;;24.30;60.90;;;;;;5023072;28;20037;-72
2022/09/30 00:39:18;;;;;;;1.98;1.77;;;24.40;60.90;;;;;;5014657;28;20084;-72
2022/09/30 00:41:47;;;;;;;2.15;1.95;;;24.40;60.90;;;;;;5015582;28;20037;-72
2022/09/30 00:44:50;;;;;;;3.58;2.05;;;24.50;61.10;;;;;;5030483;28;20037;-72
2022/09/30 00:47:38;;;;;;;2.42;1.75;;;24.50;61.00;;;;;;5053621;28;20040;-72
2022/09/30 00:50:14;;;;;;;5.88;1.88;;;24.40;61.10;;;;;;5053972;28;20094;-72
2022/09/30 00:52:41;;;;;;;4.82;1.75;;;24.60;61.20;;;;;;5051112;28;20036;-73
2022/09/30 00:55:19;;;;;;;1.58;1.48;;;24.50;61.10;;;;;;5053901;28;20036;-72
2022/09/30 00:57:45;;;;;;;3.92;1.75;;;24.40;60.90;;;;;;5042066;28;20037;-72
2022/09/30 01:00:11;;;;;;;3.47;2.00;;;24.50;61.10;;;;;;5031687;28;20585;-72
2022/09/30 01:02:37;;;;;;;1.90;1.70;;;24.50;61.10;;;;;;5034265;28;20033;-73
2022/09/30 01:05:03;;;;;;;2.55;1.63;;;24.40;61.00;;;;;;5032707;28;20044;-72
2022/09/30 01:07:30;;;;;;;1.75;1.65;;;24.40;61.00;;;;;;5032003;28;20497;-72
2022/09/30 01:09:56;;;;;;;4.43;1.75;;;24.40;61.00;;;;;;5033982;28;20385;-72
2022/09/30 01:12:24;;;;;;;9.57;1.90;;;24.40;61.10;;;;;;5028758;28;20429;-72
2022/09/30 01:14:52;;;;;;;6.53;2.00;;;24.30;61.20;;;;;;5033981;28;20025;-73
2022/09/30 01:17:39;;;;;;;4.72;2.00;;;24.30;61.20;;;;;;5034464;28;20032;-72
2022/09/30 01:20:33;;;;;;;3.55;1.73;;;24.30;61.30;;;;;;5032640;28;20033;-72
2022/09/30 01:23:21;;;;;;;2.17;1.60;;;24.20;61.40;;;;;;5014252;28;20030;-73
2022/09/30 01:26:02;;;;;;;2.80;1.77;;;24.20;61.60;;;;;;5011273;28;20091;-72
2022/09/30 01:28:37;;;;;;;5.63;1.95;;;24.20;61.60;;;;;;5024841;28;20037;-72
2022/09/30 01:31:10;;;;;;;3.47;1.63;;;24.20;61.60;;;;;;5036263;28;20045;-72
2022/09/30 01:34:02;;;;;;;4.40;1.83;;;24.20;61.70;;;;;;5013826;28;20399;-72
2022/09/30 01:36:56;;;;;;;2.92;1.55;;;24.30;61.70;;;;;;5013870;28;20061;-72
2022/09/30 01:39:28;;;;;;;8.50;1.70;;;24.20;61.60;;;;;;5013886;28;20069;-73
2022/09/30 01:42:17;;;;;;;3.80;2.00;;;24.20;61.60;;;;;;5030464;28;20040;-73
2022/09/30 01:45:06;;;;;;;2.22;1.60;;;24.40;61.70;;;;;;5023466;28;20278;-72
2022/09/30 01:47:56;;;;;;;2.25;1.65;;;24.30;61.80;;;;;;5013826;28;20045;-72
2022/09/30 01:50:44;;;;;;;4.63;1.73;;;24.20;61.70;;;;;;5013530;28;20116;-72
2022/09/30 01:53:16;;;;;;;3.65;2.00;;;24.30;61.70;;;;;;5013598;28;20030;-72
2022/09/30 01:55:52;;;;;;;5.97;2.00;;;24.40;61.70;;;;;;5019026;28;20033;-73
2022/09/30 01:58:32;;;;;;;4.72;2.10;;;24.30;61.70;;;;;;5011178;28;20052;-72
2022/09/30 02:01:01;;;;;;;3.78;2.38;;;24.20;61.50;;;;;;5032384;28;20026;-72
2022/09/30 02:03:50;;;;;;;3.17;2.60;;;24.30;61.60;;;;;;5033198;28;20073;-72
2022/09/30 02:06:21;;;;;;;3.67;2.97;;;24.20;61.60;;;;;;4973859;28;20053;-72
2022/09/30 02:08:59;;;;;;;4.13;2.90;;;24.20;61.60;;;;;;4991007;28;20105;-72
2022/09/30 02:11:28;;;;;;;3.95;2.40;;;24.20;61.60;;;;;;4989249;28;20066;-72
2022/09/30 02:14:18;;;;;;;3.13;2.40;;;24.20;61.60;;;;;;4987922;28;20062;-72
2022/09/30 02:17:13;;;;;;;5.70;2.10;;;24.20;61.60;;;;;;4989375;28;20034;-73
2022/09/30 02:19:46;;;;;;;2.95;2.00;;;24.20;61.60;;;;;;4898189;29;20036;-72
2022/09/30 02:22:25;;;;;;;4.90;2.70;;;24.20;61.60;;;;;;4913658;29;20044;-72
2022/09/30 02:25:04;;;;;;;3.03;2.50;;;24.20;61.70;;;;;;4909642;29;20048;-72
2022/09/30 02:27:41;;;;;;;2.78;2.13;;;24.20;61.80;;;;;;4911924;29;20044;-72
2022/09/30 02:30:09;;;;;;;6.15;2.40;;;24.20;61.80;;;;;;4915287;29;20542;-72
2022/09/30 02:32:51;;;;;;;7.80;2.13;;;24.20;61.90;;;;;;4913066;29;20052;-72
2022/09/30 02:35:32;;;;;;;4.72;1.92;;;24.20;61.90;;;;;;4913797;29;20036;-73
2022/09/30 02:38:04;;;;;;;3.95;1.85;;;24.00;61.90;;;;;;4943747;29;20113;-73
2022/09/30 02:40:53;;;;;;;2.42;2.08;;;24.20;62.00;;;;;;4951677;29;20039;-72
2022/09/30 02:43:20;;;;;;;3.58;1.88;;;24.30;62.10;;;;;;4950336;28;20520;-73
2022/09/30 02:45:49;;;;;;;4.10;1.70;;;24.30;62.00;;;;;;4952487;28;20086;-72
2022/09/30 02:48:24;;;;;;;4.22;2.13;;;24.20;61.80;;;;;;4961864;28;20083;-72
2022/09/30 02:50:54;;;;;;;5.95;2.28;;;24.10;61.70;;;;;;4957440;28;20047;-70
2022/09/30 02:53:20;;;;;;;3.70;2.05;;;24.20;61.80;;;;;;4951518;28;20066;-72
2022/09/30 02:56:01;;;;;;;4.70;1.83;;;24.20;61.80;;;;;;4961765;28;20069;-72
2022/09/30 02:58:29;;;;;;;6.75;2.42;;;24.30;61.80;;;;;;5020503;28;20055;-73
2022/09/30 03:00:56;;;;;;;6.32;2.88;;;24.20;61.70;;;;;;5035610;28;20049;-72
2022/09/30 03:04:05;;;;;;;4.50;2.20;;;24.30;61.80;;;;;;5051841;28;20132;-73
2022/09/30 03:06:33;;;;;;;4.75;1.98;;;24.30;61.90;;;;;;4989882;28;20054;-72
2022/09/30 03:09:00;;;;;;;4.30;2.30;;;24.20;61.80;;;;;;4989286;28;20048;-72
2022/09/30 03:11:28;;;;;;;6.05;2.05;;;24.10;61.80;;;;;;4976430;28;20042;-73
2022/09/30 03:14:27;;;;;;;4.72;2.15;;;24.20;61.80;;;;;;4965336;28;20022;-72
2022/09/30 03:17:22;;;;;;;8.68;1.90;;;24.20;61.80;;;;;;4892135;29;20527;-72
2022/09/30 03:19:57;;;;;;;3.63;1.85;;;24.10;61.90;;;;;;4893892;29;20558;-73
2022/09/30 03:22:26;;;;;;;2.85;1.90;;;24.10;61.80;;;;;;4893286;29;20044;-72
2022/09/30 03:25:10;;;;;;;1.95;1.80;;;24.00;61.70;;;;;;4893592;29;20037;-72
2022/09/30 03:27:53;;;;;;;2.17;1.50;;;24.10;62.00;;;;;;4892775;29;20060;-73
2022/09/30 03:30:25;;;;;;;1.77;1.60;;;24.00;62.10;;;;;;4889656;29;20056;-72
2022/09/30 03:32:51;;;;;;;1.92;1.55;;;24.10;62.10;;;;;;4893798;29;20040;-72
2022/09/30 03:35:26;;;;;;;5.07;2.05;;;24.20;61.90;;;;;;4892493;29;20359;-72
2022/09/30 03:38:22;;;;;;;4.50;2.22;;;24.20;61.70;;;;;;4893492;29;20047;-72
2022/09/30 03:41:07;;;;;;;5.55;2.47;;;24.20;61.50;;;;;;4802378;29;20053;-73
2022/09/30 03:43:52;;;;;;;4.97;1.98;;;24.30;61.50;;;;;;4836677;29;20483;-73
2022/09/30 03:46:29;;;;;;;7.13;2.70;;;24.20;61.20;;;;;;4864510;29;20060;-72
2022/09/30 03:49:00;;;;;;;3.08;1.85;;;24.30;61.50;;;;;;4867441;29;20484;-72
2022/09/30 03:51:28;;;;;;;3.25;2.05;;;24.20;61.60;;;;;;4856620;29;20069;-73
2022/09/30 03:53:56;;;;;;;2.83;1.98;;;24.20;61.70;;;;;;4882010;29;20052;-72
2022/09/30 03:56:30;;;;;;;10.07;2.58;;;24.10;61.70;;;;;;4942439;28;20185;-73
2022/09/30 03:58:56;;;;;;;4.35;2.58;;;24.10;61.70;;;;;;4960209;28;20063;-73
2022/09/30 04:01:23;;;;;;;6.88;2.35;;;24.20;61.80;;;;;;4943069;29;20090;-73
2022/09/30 04:03:53;;;;;;;5.35;2.40;;;24.40;61.40;;;;;;4950525;29;20055;-73
2022/09/30 04:06:22;;;;;;;2.65;1.90;;;24.40;61.10;;;;;;4962388;28;20042;-73
2022/09/30 04:08:49;;;;;;;3.35;1.90;;;24.40;61.00;;;;;;4971907;28;20206;-73
2022/09/30 04:11:15;;;;;;;6.13;2.15;;;24.40;60.80;;;;;;4970629;28;20157;-73
2022/09/30 04:13:41;;;;;;;2.78;1.50;;;24.40;61.10;;;;;;4951343;28;20381;-73
2022/09/30 04:16:07;;;;;;;5.40;1.90;;;24.20;61.20;;;;;;4957111;28;20153;-72
2022/09/30 04:18:37;;;;;;;8.23;2.17;;;24.20;61.50;;;;;;5002376;28;20048;-73
2022/09/30 04:21:12;;;;;;;7.88;2.28;;;24.10;61.60;;;;;;5026892;28;20046;-73
2022/09/30 04:23:39;;;;;;;4.07;2.17;;;24.00;61.70;;;;;;5033942;28;20060;-73
2022/09/30 04:26:08;;;;;;;5.20;1.63;;;24.10;61.90;;;;;;5033923;28;20104;-73
2022/09/30 04:28:35;;;;;;;5.28;1.98;;;24.00;62.10;;;;;;5036168;28;20037;-73
2022/09/30 04:31:02;;;;;;;3.05;1.77;;;24.10;62.00;;;;;;5024211;28;20080;-73
2022/09/30 04:33:28;;;;;;;5.68;1.83;;;24.10;62.00;;;;;;5012691;28;20442;-75
2022/09/30 04:35:56;;;;;;;3.25;1.73;;;24.00;61.80;;;;;;5014844;28;20030;-73
2022/09/30 04:38:23;;;;;;;3.72;1.90;;;24.10;62.00;;;;;;5014455;28;20033;-72
2022/09/30 04:40:50;;;;;;;7.82;1.90;;;24.10;62.10;;;;;;4995940;28;20070;-73
2022/09/30 04:43:18;;;;;;;2.95;1.75;;;24.10;62.20;;;;;;5009725;28;20098;-73
2022/09/30 04:45:45;;;;;;;4.47;1.98;;;24.00;62.20;;;;;;5011063;28;20042;-72
2022/09/30 04:48:12;;;;;;;6.05;1.70;;;24.10;62.30;;;;;;5010857;28;20038;-73
2022/09/30 04:50:38;;;;;;;5.90;2.13;;;24.10;62.30;;;;;;5011220;28;20143;-72
2022/09/30 04:53:06;;;;;;;7.88;2.42;;;24.00;62.10;;;;;;5010852;28;20037;-72
2022/09/30 04:55:32;;;;;;;6.45;2.20;;;24.00;62.10;;;;;;4999234;28;20054;-72
2022/09/30 04:57:58;;;;;;;6.45;2.25;;;24.10;62.30;;;;;;5000812;28;20372;-73
2022/09/30 05:00:24;;;;;;;2.17;1.85;;;24.10;62.20;;;;;;5011704;28;20038;-72
2022/09/30 05:02:51;;;;;;;5.30;1.90;;;24.10;62.20;;;;;;4992861;28;20097;-73
2022/09/30 05:05:17;;;;;;;4.15;2.00;;;24.20;62.00;;;;;;4992194;28;20034;-73
2022/09/30 05:07:43;;;;;;;3.42;1.90;;;24.10;61.90;;;;;;5011628;28;20099;-73
2022/09/30 05:10:10;;;;;;;3.47;1.80;;;24.00;61.80;;;;;;4990547;28;20038;-73
2022/09/30 05:12:37;;;;;;;3.17;2.00;;;24.20;61.90;;;;;;5039144;28;20405;-73
2022/09/30 05:15:04;;;;;;;4.72;2.08;;;24.20;61.90;;;;;;5044781;28;20061;-72
2022/09/30 05:17:31;;;;;;;2.90;2.17;;;24.20;61.90;;;;;;5031856;28;20088;-73
2022/09/30 05:19:57;;;;;;;4.18;1.90;;;24.00;61.80;;;;;;5033154;28;20057;-72
2022/09/30 05:22:24;;;;;;;7.68;2.17;;;24.20;61.80;;;;;;5031272;28;20033;-75
2022/09/30 05:24:51;;;;;;;1.67;1.58;;;24.10;61.80;;;;;;5013228;28;20053;-74
2022/09/30 05:27:19;;;;;;;3.33;1.27;;;24.10;60.70;;;;;;5024216;28;20042;-69
2022/09/30 05:29:45;;;;;;;1.23;1.10;;;24.20;59.20;;;;;;5031929;28;20042;-69
2022/09/30 05:32:11;;;;;;;8.70;2.38;;;24.40;58.60;;;;;;5035195;28;20044;-69
2022/09/30 05:34:37;;;;;;;7.07;1.45;;;24.40;58.60;;;;;;5053113;28;20032;-69
2022/09/30 05:37:04;;;;;;;2.17;1.70;;;24.50;60.20;;;;;;5033262;28;20095;-68
2022/09/30 05:39:31;;;;;;;2.92;1.00;;;24.50;56.00;;;;;;5031338;28;20037;-68
2022/09/30 05:41:58;;;;;;;0.90;0.88;;;24.50;56.10;;;;;;5044212;28;20040;-69
2022/09/30 05:44:25;;;;;;;1.30;1.20;;;24.50;55.70;;;;;;5040915;28;20037;-69
2022/09/30 05:46:51;;;;;;;3.15;1.70;;;24.40;55.70;;;;;;5030093;28;20041;-69
2022/09/30 05:49:17;;;;;;;2.58;1.70;;;24.50;55.80;;;;;;5033842;28;20086;-68
2022/09/30 05:51:43;;;;;;;1.88;1.50;;;24.40;56.00;;;;;;5050000;28;20121;-69
2022/09/30 05:54:10;;;;;;;1.73;1.02;;;24.50;56.00;;;;;;5031999;28;20441;-68
2022/09/30 05:56:39;;;;;;;3.90;2.05;;;24.50;55.80;;;;;;5031671;28;20017;-70
2022/09/30 05:59:06;;;;;;;3.38;2.25;;;24.60;60.00;;;;;;5010522;28;20395;-67
2022/09/30 06:01:32;;;;;;;3.60;2.38;;;24.70;59.90;;;;;;5033060;28;20108;-67
2022/09/30 06:03:59;;;;;;;5.15;3.15;;;24.80;60.00;;;;;;5031550;28;20127;-66
2022/09/30 06:06:25;;;;;;;11.38;3.35;;;24.80;60.70;;;;;;5028130;28;20040;-68
2022/09/30 06:08:51;;;;;;;8.52;4.43;;;24.80;61.90;;;;;;5035043;28;20381;-69
2022/09/30 06:11:20;;;;;;;7.38;3.47;;;24.80;60.40;;;;;;5029731;28;20030;-67
2022/09/30 06:13:48;;;;;;;7.07;4.47;;;24.80;60.40;;;;;;5021708;28;20026;-70
2022/09/30 06:16:17;;;;;;;9.25;4.32;;;24.80;61.90;;;;;;5027524;28;20509;-70
2022/09/30 06:18:43;;;;;;;10.30;3.45;;;24.80;61.70;;;;;;5031741;28;20112;-70
2022/09/30 06:21:14;;;;;;;7.70;3.92;;;24.90;61.20;;;;;;5029236;28;20025;-68
2022/09/30 06:23:40;;;;;;;10.43;4.18;;;24.90;61.20;;;;;;5028144;28;20025;-69
2022/09/30 06:26:08;;;;;;;10.40;3.05;;;24.80;61.10;;;;;;5027919;28;20714;-69
2022/09/30 06:28:34;;;;;;;6.22;2.97;;;24.80;61.40;;;;;;5031350;28;20025;-68
2022/09/30 06:31:05;;;;;;;3.53;2.58;;;24.90;61.60;;;;;;5031338;28;20060;-70
2022/09/30 06:33:32;;;;;;;11.60;3.10;;;24.90;61.40;;;;;;5029281;28;20816;-68
2022/09/30 06:35:58;;;;;;;6.65;2.72;;;24.90;61.50;;;;;;5029415;28;20036;-69
2022/09/30 06:38:26;;;;;;;5.35;2.53;;;25.00;61.50;;;;;;5030384;28;20705;-69
2022/09/30 06:40:52;;;;;;;9.55;2.40;;;25.00;61.50;;;;;;5029168;28;20113;-70
2022/09/30 06:43:18;;;;;;;3.65;2.38;;;25.00;61.60;;;;;;5029762;28;20108;-68
2022/09/30 06:45:46;;;;;;;7.38;3.10;;;25.00;61.90;;;;;;5027713;28;20056;-70
2022/09/30 06:48:12;;;;;;;2.90;1.50;;;25.00;62.00;;;;;;5020802;28;20384;-70
2022/09/30 06:50:39;;;;;;;4.50;2.35;;;25.20;62.20;;;;;;5028910;28;20068;-69
2022/09/30 06:53:07;;;;;;;5.63;2.65;;;25.10;62.10;;;;;;5028205;28;20104;-68
2022/09/30 06:55:37;;;;;;;6.72;3.00;;;25.10;62.00;;;;;;5035500;28;20421;-69
2022/09/30 06:58:07;;;;;;;4.57;2.15;;;25.10;61.80;;;;;;5023123;28;20429;-68
2022/09/30 07:00:33;;;;;;;4.28;3.05;;;25.20;61.80;;;;;;5025375;28;20045;-70
2022/09/30 07:02:59;;;;;;;10.13;3.33;;;25.20;61.90;;;;;;5029675;28;20111;-71
2022/09/30 07:05:25;;;;;;;4.28;2.53;;;25.30;61.90;;;;;;5027825;28;20061;-71
2022/09/30 07:07:53;;;;;;;4.90;3.17;;;25.10;61.90;;;;;;5024670;28;20046;-68
2022/09/30 07:10:20;;;;;;;6.82;2.88;;;25.30;61.50;;;;;;5020532;28;20047;-69
2022/09/30 07:12:50;;;;;;;0.20;0.20;;;25.30;62.50;;;;;;5024377;28;20033;-69
2022/09/30 07:15:18;;;;;;;2.20;0.95;;;25.20;63.10;;;;;;5024051;28;20429;-69
2022/09/30 07:17:44;;;;;;;0.63;0.63;;;25.50;63.20;;;;;;5028833;28;20426;-68
2022/09/30 07:20:10;;;;;;;1.65;1.15;;;25.30;62.10;;;;;;5028431;28;20120;-68
2022/09/30 07:22:36;;;;;;;8.73;3.97;;;25.50;61.10;;;;;;5027552;28;20124;-74
2022/09/30 07:25:03;;;;;;;14.02;3.92;;;25.50;60.30;;;;;;5027526;28;20091;-70
2022/09/30 07:27:31;;;;;;;9.40;3.78;;;25.50;60.00;;;;;;5028109;28;20033;-69
2022/09/30 07:29:58;;;;;;;7.22;3.35;;;25.50;59.80;;;;;;5026651;28;20046;-66
2022/09/30 07:32:24;;;;;;;5.43;2.30;;;25.60;59.20;;;;;;5027292;28;20042;-68
2022/09/30 07:34:50;;;;;;;4.32;2.90;;;25.40;59.60;;;;;;5022744;28;20109;-69
2022/09/30 07:37:18;;;;;;;4.15;2.05;;;25.50;59.80;;;;;;5029360;28;20119;-70
2022/09/30 07:39:46;;;;;;;1.55;1.38;;;25.60;60.40;;;;;;5028021;28;20057;-74
2022/09/30 07:42:14;;;;;;;4.28;3.83;;;25.80;66.40;;;;;;5027693;28;20048;-75
2022/09/30 07:44:42;;;;;;;3.35;1.65;;;26.00;62.10;;;;;;5028425;28;20455;-70
2022/09/30 07:47:13;;;;;;;1.33;1.20;;;26.00;59.90;;;;;;5028184;28;20033;-69
2022/09/30 07:49:41;;;;;;;0.75;0.55;;;26.00;58.90;;;;;;5023114;28;20033;-69
2022/09/30 07:52:09;;;;;;;1.27;0.80;;;26.00;58.90;;;;;;5029478;28;20108;-69
2022/09/30 07:54:35;;;;;;;0.45;0.45;;;25.90;58.10;;;;;;5028271;28;20052;-69
2022/09/30 07:57:02;;;;;;;2.88;2.20;;;25.90;57.80;;;;;;5023713;28;20406;-70
2022/09/30 07:59:31;;;;;;;3.05;1.90;;;25.90;57.50;;;;;;5028470;28;20029;-70
2022/09/30 08:01:57;;;;;;;10.93;1.92;;;25.80;57.30;;;;;;5026004;28;20114;-70
2022/09/30 08:04:25;;;;;;;6.95;2.33;;;25.80;57.10;;;;;;5030877;28;21115;-71
2022/09/30 08:06:54;;;;;;;3.22;1.70;;;25.80;57.10;;;;;;5028904;28;20474;-69
2022/09/30 08:09:22;;;;;;;2.80;1.75;;;25.80;57.20;;;;;;5034204;28;20121;-70
2022/09/30 08:11:48;;;;;;;3.05;1.80;;;25.90;58.00;;;;;;5021182;28;20148;-71
2022/09/30 08:14:17;;;;;;;7.95;2.45;;;25.80;57.80;;;;;;5027395;28;20057;-70
2022/09/30 08:16:43;;;;;;;4.20;1.90;;;25.90;57.60;;;;;;5011316;28;20052;-70
2022/09/30 08:19:15;;;;;;;4.07;2.10;;;25.80;57.40;;;;;;5022284;28;20034;-71
2022/09/30 08:21:41;;;;;;;7.53;2.07;;;25.90;57.20;;;;;;5024724;28;20065;-71
2022/09/30 08:24:07;;;;;;;8.40;2.53;;;25.90;57.20;;;;;;5029805;28;20525;-71
2022/09/30 08:26:33;;;;;;;6.93;2.45;;;25.90;57.10;;;;;;5041898;28;20033;-71
2022/09/30 08:29:00;;;;;;;3.60;2.08;;;25.90;56.90;;;;;;5050968;28;20055;-70
2022/09/30 08:31:26;;;;;;;5.15;2.22;;;25.80;56.70;;;;;;5050983;28;20068;-71
2022/09/30 08:33:53;;;;;;;6.03;2.33;;;25.90;56.60;;;;;;5049696;28;20029;-71
2022/09/30 08:36:22;;;;;;;5.65;2.05;;;25.80;56.40;;;;;;5048916;28;20044;-71
2022/09/30 08:38:48;;;;;;;3.35;2.47;;;25.90;56.30;;;;;;5050783;28;20100;-71
2022/09/30 08:41:26;;;;;;;5.85;2.30;;;25.90;56.20;;;;;;5048229;28;20028;-70
2022/09/30 08:44:19;;;;;;;9.40;2.67;;;25.90;56.10;;;;;;5048394;28;20033;-71
2022/09/30 08:46:58;;;;;;;;;;;25.90;55.80;;;;;;5043712;28;20460;-71
2022/09/30 08:49:36;;;;;;;2.25;1.98;;;25.80;55.50;;;;;;5030831;28;19984;-70
2022/09/30 08:52:07;;;;;;;4.43;2.58;;;25.80;55.60;;;;;;5031796;28;20037;-73
2022/09/30 08:54:34;;;;;;;8.95;2.20;;;25.80;55.30;;;;;;5034427;28;20049;-72
2022/09/30 08:57:02;;;;;;;5.38;2.30;;;25.80;55.30;;;;;;5051834;28;20037;-72
2022/09/30 08:59:37;;;;;;;5.72;2.30;;;25.80;55.30;;;;;;5054098;28;20044;-70
2022/09/30 09:02:29;;;;;;;5.20;1.70;;;25.70;55.30;;;;;;5049709;28;20370;-71
2022/09/30 09:05:01;;;;;;;3.33;1.88;;;25.60;55.50;;;;;;5052043;28;20045;-72
2022/09/30 09:07:49;;;;;;;5.30;1.85;;;25.80;55.70;;;;;;5051504;28;20033;-70
2022/09/30 09:10:43;;;;;;;3.70;2.03;;;25.80;55.60;;;;;;5029223;28;20498;-72
2022/09/30 09:13:12;;;;;;;2.70;1.77;;;25.80;55.60;;;;;;5049017;28;20076;-72
2022/09/30 09:16:10;;;;;;;3.33;1.90;;;25.70;55.70;;;;;;5024084;28;20470;-74
2022/09/30 09:18:52;;;;;;;3.10;1.33;;;25.80;55.90;;;;;;4950889;28;20051;-68
2022/09/30 09:21:42;;;;;;;5.88;1.50;;;25.60;56.60;;;;;;4951874;29;20121;-67
2022/09/30 09:24:22;;;;;;;6.15;1.85;;;25.60;57.50;;;;;;4927533;29;20134;-66
2022/09/30 09:26:49;;;;;;;3.33;1.33;;;25.70;58.00;;;;;;4950616;28;20047;-68
2022/09/30 09:29:40;;;;;;;2.00;1.50;;;25.70;57.20;;;;;;4948936;29;20071;-69
2022/09/30 09:32:16;;;;;;;7.88;1.58;;;25.60;56.80;;;;;;4934139;28;20085;-68
2022/09/30 09:34:43;;;;;;;1.30;1.13;;;25.60;55.10;;;;;;4957048;28;20058;-67
2022/09/30 09:38:23;;;;;;;3.72;1.40;;;25.60;56.40;;;;;;4953437;28;20040;-66
2022/09/30 09:40:20;;;;;;;2.63;1.80;;;25.60;56.80;;;;;;4953472;28;20043;-67
2022/09/30 09:43:12;;;;;;;1.38;1.27;;;25.50;57.10;;;;;;4969217;28;20043;-67
2022/09/30 09:45:54;;;;;;;2.38;1.20;;;25.60;57.00;;;;;;4932513;29;20086;-67
2022/09/30 09:48:20;;;;;;;2.92;1.33;;;25.80;56.80;;;;;;4932607;29;20055;-70
2022/09/30 09:51:13;;;;;;;1.70;1.13;;;25.60;55.30;;;;;;4944562;29;20047;-70
2022/09/30 09:53:47;;;;;;;2.85;1.30;;;25.70;56.30;;;;;;4949427;29;20609;-71
2022/09/30 09:56:19;;;;;;;4.43;2.25;;;25.80;61.50;;;;;;5013370;28;20037;-70
2022/09/30 09:59:07;;;;;;;3.55;1.38;;;26.30;69.00;;;;;;5039103;28;20160;-73
2022/09/30 10:01:36;;;;;;;0.73;0.73;;;26.60;68.40;;;;;;5031114;28;20041;-69
2022/09/30 10:04:24;;;;;;;0.98;0.95;;;26.80;65.30;;;;;;5029318;28;20459;-70
2022/09/30 10:06:58;;;;;;;4.97;1.92;;;26.70;58.90;;;;;;5024862;28;20037;-70
2022/09/30 10:09:32;;;;;;;2.95;1.33;;;26.60;58.20;;;;;;5032063;28;20040;-69
2022/09/30 10:12:04;;;;;;;0.93;0.75;;;26.70;59.50;;;;;;5028631;28;20207;-69
2022/09/30 10:14:31;;;;;;;1.42;1.33;;;26.70;57.80;;;;;;5027642;28;20044;-68
2022/09/30 10:17:03;;;;;;;0.82;0.82;;;26.60;57.60;;;;;;5029977;28;20040;-69
2022/09/30 10:19:32;;;;;;;0.40;0.40;;;26.60;55.50;;;;;;5016463;28;20057;-70
2022/09/30 10:22:07;;;;;;;1.05;1.05;;;26.60;54.70;;;;;;5031015;28;20056;-68
2022/09/30 10:24:35;;;;;;;1.52;0.80;;;26.60;54.10;;;;;;5031609;28;20034;-70
2022/09/30 10:27:01;;;;;;;2.70;1.27;;;26.60;54.00;;;;;;5038231;28;20334;-70
2022/09/30 10:29:30;;;;;;;0.90;0.90;;;26.60;54.30;;;;;;5037621;28;20935;-72
2022/09/30 10:31:58;;;;;;;0.43;0.43;;;26.60;53.90;;;;;;5043925;28;20032;-69
2022/09/30 10:34:44;;;;;;;0.30;0.30;;;26.40;53.60;;;;;;5032048;28;20493;-68
2022/09/30 10:37:20;;;;;;;3.38;1.45;;;26.60;54.20;;;;;;5030778;28;20043;-69
2022/09/30 10:40:00;;;;;;;1.40;1.30;;;26.60;54.50;;;;;;5020677;28;20121;-69
2022/09/30 10:42:34;;;;;;;2.00;0.82;;;26.50;54.20;;;;;;5028220;28;20021;-71
2022/09/30 10:45:26;;;;;;;2.25;1.08;;;26.70;53.80;;;;;;5000912;28;20054;-70
2022/09/30 10:47:54;;;;;;;2.60;1.38;;;26.60;54.40;;;;;;5003504;28;20743;-69
2022/09/30 10:50:23;;;;;;;3.63;1.40;;;26.40;54.50;;;;;;4995889;28;20069;-69
2022/09/30 10:53:02;;;;;;;1.48;1.20;;;26.70;53.40;;;;;;4995840;28;20422;-69
2022/09/30 10:55:34;;;;;;;3.17;1.23;;;26.40;54.80;;;;;;4995916;28;20117;-69
2022/09/30 10:58:22;;;;;;;0.73;0.73;;;26.50;55.10;;;;;;5009263;28;20289;-69
2022/09/30 11:00:56;;;;;;;1.77;1.13;;;26.50;54.60;;;;;;5002433;28;20042;-71
2022/09/30 11:03:36;;;;;;;1.33;1.23;;;26.50;50.30;;;;;;4992907;28;20057;-69
2022/09/30 11:06:05;;;;;;;2.67;1.33;;;26.40;54.10;;;;;;4997422;28;20042;-69
2022/09/30 11:08:43;;;;;;;1.60;1.00;;;26.40;52.80;;;;;;4983641;28;20037;-68
2022/09/30 11:11:18;;;;;;;0.88;0.77;;;26.40;53.70;;;;;;4987825;28;20038;-69
2022/09/30 11:14:22;;;;;;;2.35;1.10;;;26.40;51.90;;;;;;5002379;28;20085;-68
2022/09/30 11:16:53;;;;;;;;;;;26.40;52.50;;;;;;4989070;28;20643;-68
2022/09/30 11:19:43;;;;;;;2.83;1.58;;;26.30;51.70;;;;;;4996355;28;19909;-68
2022/09/30 11:22:24;;;;;;;1.20;1.02;;;26.30;49.00;;;;;;5000390;28;20038;-67
2022/09/30 11:24:52;;;;;;;2.35;0.70;;;26.30;54.50;;;;;;5028586;28;20029;-68
2022/09/30 11:27:27;;;;;;;3.88;1.05;;;26.40;56.10;;;;;;5026364;28;20094;-68
2022/09/30 11:30:30;;;;;;;1.35;1.05;;;26.30;54.60;;;;;;5024845;28;20426;-68
2022/09/30 11:33:23;;;;;;;2.95;1.20;;;26.30;51.60;;;;;;5023702;28;20397;-68
2022/09/30 11:36:23;;;;;;;0.85;0.82;;;26.40;51.50;;;;;;5028442;28;20036;-69
2022/09/30 11:38:51;;;;;;;2.67;1.20;;;26.30;48.20;;;;;;5027523;28;20045;-68
2022/09/30 11:41:23;;;;;;;4.22;0.93;;;26.40;48.60;;;;;;5024066;28;20700;-67
2022/09/30 11:44:04;;;;;;;4.00;1.48;;;26.30;54.90;;;;;;5025135;28;20130;-67
2022/09/30 11:46:39;;;;;;;1.80;1.15;;;26.40;48.40;;;;;;5000781;28;20141;-67
2022/09/30 11:49:20;;;;;;;1.48;1.35;;;26.40;55.80;;;;;;5030675;28;20068;-69
2022/09/30 11:52:01;;;;;;;4.72;1.25;;;26.30;56.50;;;;;;5024758;28;20033;-68
2022/09/30 11:54:36;;;;;;;4.20;1.63;;;26.30;55.20;;;;;;5030099;28;20034;-70
2022/09/30 11:57:23;;;;;;;5.65;1.65;;;26.40;58.70;;;;;;5027518;28;20117;-67
2022/09/30 11:59:57;;;;;;;3.00;1.25;;;26.30;59.90;;;;;;5025413;28;20033;-68
2022/09/30 12:02:39;;;;;;;3.75;1.30;;;26.40;59.20;;;;;;5025200;28;20065;-68
2022/09/30 12:05:21;;;;;;;4.38;1.88;;;26.30;57.70;;;;;;5028323;28;20172;-70
2022/09/30 12:08:13;;;;;;;7.37;2.10;;;26.50;57.50;;;;;;4995703;28;20037;-68
2022/09/30 12:10:50;;;;;;;2.05;1.45;;;26.50;57.30;;;;;;5030423;28;20049;-68
2022/09/30 12:13:24;;;;;;;1.38;1.17;;;26.30;57.20;;;;;;5028716;28;20474;-68
2022/09/30 12:15:54;;;;;;;2.78;1.52;;;26.40;57.00;;;;;;5029843;28;20123;-69
2022/09/30 12:18:27;;;;;;;5.00;1.60;;;26.40;56.70;;;;;;5028931;28;20037;-67
2022/09/30 12:20:58;;;;;;;3.67;1.45;;;26.40;56.40;;;;;;5030690;28;20076;-68
2022/09/30 12:23:36;;;;;;;1.85;1.10;;;26.60;56.00;;;;;;5030558;28;20041;-67
2022/09/30 12:26:03;;;;;;;3.40;1.20;;;26.40;55.90;;;;;;5030528;28;20034;-69
2022/09/30 12:31:42;;;;;;;6.95;1.13;;;26.40;54.80;;;;;;5034211;28;20038;-69
2022/09/30 12:34:27;;;;;;;3.05;1.15;;;26.50;54.40;;;;;;5034227;28;20411;-66
2022/09/30 12:37:17;;;;;;;2.10;0.90;;;26.50;54.40;;;;;;5034192;28;20109;-66
2022/09/30 12:39:55;;;;;;;0.82;0.82;;;26.40;54.90;;;;;;5034385;28;20038;-67
2022/09/30 12:42:24;;;;;;;1.95;1.17;;;26.40;55.20;;;;;;5032555;28;20446;-67
2022/09/30 12:45:28;;;;;;;1.45;1.35;;;26.40;55.40;;;;;;5034341;28;20060;-68
2022/09/30 12:48:02;;;;;;;4.53;1.23;;;26.40;55.50;;;;;;5032791;28;20041;-67
2022/09/30 12:50:40;;;;;;;3.53;1.73;;;26.40;55.50;;;;;;5034167;28;20025;-68
2022/09/30 12:53:17;;;;;;;4.00;1.45;;;26.40;55.60;;;;;;5021866;28;20187;-69
2022/09/30 12:55:44;;;;;;;6.55;1.40;;;26.40;55.70;;;;;;5013996;28;20396;-69
2022/09/30 12:58:33;;;;;;;1.77;0.90;;;26.40;55.80;;;;;;5016503;28;20030;-72
2022/09/30 13:01:01;;;;;;;2.25;1.50;;;26.50;55.70;;;;;;5031776;28;20033;-69
2022/09/30 13:03:42;;;;;;;2.72;1.67;;;26.50;55.00;;;;;;5033969;28;20436;-69
2022/09/30 13:06:08;;;;;;;2.67;1.00;;;26.50;55.60;;;;;;5034210;28;20433;-70
2022/09/30 13:08:43;;;;;;;1.23;1.00;;;26.50;55.80;;;;;;5033744;28;20117;-70
2022/09/30 13:11:32;;;;;;;1.65;1.45;;;26.60;56.00;;;;;;5031222;28;20033;-69
2022/09/30 13:14:14;;;;;;;1.50;1.13;;;26.70;56.00;;;;;;5033941;28;20033;-69
2022/09/30 13:17:00;;;;;;;;;;;26.60;56.10;;;;;;5015636;28;20037;-71
2022/09/30 13:19:41;;;;;;;1.60;1.05;;;26.60;56.30;;;;;;5033710;28;20205;-70
2022/09/30 13:22:40;;;;;;;3.83;1.35;;;26.60;56.20;;;;;;5033478;28;20047;-70
2022/09/30 13:25:16;;;;;;;4.85;1.17;;;26.60;56.40;;;;;;5032564;28;20038;-69